sensor_id;sensor_type;location;lat;lon;timestamp;pressure;altitude;pressure_sealevel;temperature;humidity
20955;BME280;10636;19.390;-99.256;2022-08-19T00:01:58;78005.03;;;24.34;46.26
20955;BME280;10636;19.390;-99.256;2022-08-19T00:04:28;78006.34;;;24.33;45.83
20955;BME280;10636;19.390;-99.256;2022-08-19T00:06:58;78013.00;;;24.32;46.23
20955;BME280;10636;19.390;-99.256;2022-08-19T00:09:28;78026.41;;;24.32;46.57
20955;BME280;10636;19.390;-99.256;2022-08-19T00:11:57;78023.72;;;24.32;46.30
20955;BME280;10636;19.390;-99.256;2022-08-19T00:14:26;78015.84;;;24.36;46.49
20955;BME280;10636;19.390;-99.256;2022-08-19T00:16:58;78018.44;;;24.34;46.37
20955;BME280;10636;19.390;-99.256;2022-08-19T00:19:26;78014.28;;;24.31;46.03
20955;BME280;10636;19.390;-99.256;2022-08-19T00:21:54;78018.94;;;24.30;46.49
20955;BME280;10636;19.390;-99.256;2022-08-19T00:24:23;78022.41;;;24.33;46.81
20955;BME280;10636;19.390;-99.256;2022-08-19T00:26:52;78013.00;;;24.32;46.90
20955;BME280;10636;19.390;-99.256;2022-08-19T00:29:24;78014.38;;;24.33;46.70
20955;BME280;10636;19.390;-99.256;2022-08-19T00:31:52;78011.59;;;24.31;46.59
20955;BME280;10636;19.390;-99.256;2022-08-19T00:34:24;78013.59;;;24.30;46.37
20955;BME280;10636;19.390;-99.256;2022-08-19T00:36:55;78009.53;;;24.29;46.86
20955;BME280;10636;19.390;-99.256;2022-08-19T00:39:24;78012.22;;;24.29;46.33
20955;BME280;10636;19.390;-99.256;2022-08-19T00:41:55;78016.72;;;24.24;47.02
20955;BME280;10636;19.390;-99.256;2022-08-19T00:44:26;78006.16;;;24.29;46.68
20955;BME280;10636;19.390;-99.256;2022-08-19T00:46:56;77995.38;;;24.26;46.91
20955;BME280;10636;19.390;-99.256;2022-08-19T00:49:29;77982.72;;;24.29;46.66
20955;BME280;10636;19.390;-99.256;2022-08-19T00:52:01;77982.03;;;24.29;46.82
20955;BME280;10636;19.390;-99.256;2022-08-19T00:54:31;77979.53;;;24.33;46.42
20955;BME280;10636;19.390;-99.256;2022-08-19T00:57:09;77979.53;;;24.33;46.42
20955;BME280;10636;19.390;-99.256;2022-08-19T00:59:40;77981.53;;;24.32;46.86
20955;BME280;10636;19.390;-99.256;2022-08-19T01:02:10;77988.88;;;24.32;46.44
20955;BME280;10636;19.390;-99.256;2022-08-19T01:04:40;77995.50;;;24.31;45.73
20955;BME280;10636;19.390;-99.256;2022-08-19T01:07:08;78001.50;;;24.29;46.04
20955;BME280;10636;19.390;-99.256;2022-08-19T01:09:36;77994.00;;;24.25;45.38
20955;BME280;10636;19.390;-99.256;2022-08-19T01:12:05;77995.88;;;24.23;45.31
20955;BME280;10636;19.390;-99.256;2022-08-19T01:14:35;77992.59;;;24.24;45.51
20955;BME280;10636;19.390;-99.256;2022-08-19T01:17:04;77991.84;;;24.22;45.08
20955;BME280;10636;19.390;-99.256;2022-08-19T01:19:35;77997.72;;;24.18;45.44
20955;BME280;10636;19.390;-99.256;2022-08-19T01:22:11;78004.44;;;24.19;45.11
20955;BME280;10636;19.390;-99.256;2022-08-19T01:24:42;78012.47;;;24.19;45.36
20955;BME280;10636;19.390;-99.256;2022-08-19T01:27:10;78019.25;;;24.20;45.46
20955;BME280;10636;19.390;-99.256;2022-08-19T01:29:40;78021.94;;;24.20;45.60
20955;BME280;10636;19.390;-99.256;2022-08-19T01:32:12;78017.94;;;24.21;45.07
20955;BME280;10636;19.390;-99.256;2022-08-19T01:34:40;78019.94;;;24.21;45.59
20955;BME280;10636;19.390;-99.256;2022-08-19T01:37:14;78011.78;;;24.19;45.54
20955;BME280;10636;19.390;-99.256;2022-08-19T01:39:44;78008.34;;;24.16;45.33
20955;BME280;10636;19.390;-99.256;2022-08-19T01:42:13;78016.41;;;24.16;45.50
20955;BME280;10636;19.390;-99.256;2022-08-19T01:44:41;78024.50;;;24.18;45.41
20955;BME280;10636;19.390;-99.256;2022-08-19T01:47:09;78025.75;;;24.15;45.57
20955;BME280;10636;19.390;-99.256;2022-08-19T01:49:38;78033.84;;;24.17;45.74
20955;BME280;10636;19.390;-99.256;2022-08-19T01:52:07;78032.53;;;24.18;46.28
20955;BME280;10636;19.390;-99.256;2022-08-19T01:54:35;78032.47;;;24.16;46.51
20955;BME280;10636;19.390;-99.256;2022-08-19T01:57:08;78039.91;;;24.18;46.47
20955;BME280;10636;19.390;-99.256;2022-08-19T01:59:38;78041.88;;;24.17;46.25
20955;BME280;10636;19.390;-99.256;2022-08-19T02:02:07;78044.56;;;24.17;47.10
20955;BME280;10636;19.390;-99.256;2022-08-19T02:04:36;78048.63;;;24.18;46.27
20955;BME280;10636;19.390;-99.256;2022-08-19T02:07:05;78054.09;;;24.20;46.85
20955;BME280;10636;19.390;-99.256;2022-08-19T02:09:34;78060.28;;;24.25;46.47
20955;BME280;10636;19.390;-99.256;2022-08-19T02:12:06;78060.28;;;24.25;46.79
20955;BME280;10636;19.390;-99.256;2022-08-19T02:14:36;78054.34;;;24.26;46.83
20955;BME280;10636;19.390;-99.256;2022-08-19T02:17:04;78063.81;;;24.30;46.76
20955;BME280;10636;19.390;-99.256;2022-08-19T02:19:33;78058.56;;;24.32;47.09
20955;BME280;10636;19.390;-99.256;2022-08-19T02:22:01;78053.09;;;24.30;46.93
20955;BME280;10636;19.390;-99.256;2022-08-19T02:24:30;78050.41;;;24.30;47.20
20955;BME280;10636;19.390;-99.256;2022-08-19T02:26:58;78057.16;;;24.31;46.87
20955;BME280;10636;19.390;-99.256;2022-08-19T02:29:28;78054.47;;;24.31;46.68
20955;BME280;10636;19.390;-99.256;2022-08-19T02:31:56;78048.44;;;24.30;47.05
20955;BME280;10636;19.390;-99.256;2022-08-19T02:34:25;78036.94;;;24.27;47.35
20955;BME280;10636;19.390;-99.256;2022-08-19T02:36:53;78035.56;;;24.26;46.86
20955;BME280;10636;19.390;-99.256;2022-08-19T02:39:22;78038.75;;;24.23;47.13
20955;BME280;10636;19.390;-99.256;2022-08-19T02:41:49;78046.28;;;24.26;47.24
20955;BME280;10636;19.390;-99.256;2022-08-19T02:44:18;78037.84;;;24.16;47.41
20955;BME280;10636;19.390;-99.256;2022-08-19T02:46:48;78057.00;;;24.26;47.65
20955;BME280;10636;19.390;-99.256;2022-08-19T02:49:17;78064.38;;;24.26;47.07
20955;BME280;10636;19.390;-99.256;2022-08-19T02:51:46;78080.34;;;24.24;47.88
20955;BME280;10636;19.390;-99.256;2022-08-19T02:54:15;78085.19;;;24.27;47.67
20955;BME280;10636;19.390;-99.256;2022-08-19T02:56:43;78087.94;;;24.30;47.56
20955;BME280;10636;19.390;-99.256;2022-08-19T02:59:12;78077.22;;;24.30;47.69
20955;BME280;10636;19.390;-99.256;2022-08-19T03:01:42;78081.03;;;24.24;47.61
20955;BME280;10636;19.390;-99.256;2022-08-19T03:04:14;78097.97;;;24.29;48.29
20955;BME280;10636;19.390;-99.256;2022-08-19T03:06:45;78100.59;;;24.27;47.99
20955;BME280;10636;19.390;-99.256;2022-08-19T03:09:14;78109.22;;;24.25;48.12
20955;BME280;10636;19.390;-99.256;2022-08-19T03:11:43;78109.06;;;24.21;48.34
20955;BME280;10636;19.390;-99.256;2022-08-19T03:14:13;78106.38;;;24.21;47.58
20955;BME280;10636;19.390;-99.256;2022-08-19T03:16:43;78106.28;;;24.19;47.90
20955;BME280;10636;19.390;-99.256;2022-08-19T03:19:15;78106.28;;;24.19;48.08
20955;BME280;10636;19.390;-99.256;2022-08-19T03:21:45;78099.47;;;24.16;47.99
20955;BME280;10636;19.390;-99.256;2022-08-19T03:24:14;78102.16;;;24.16;47.92
20955;BME280;10636;19.390;-99.256;2022-08-19T03:26:45;78108.88;;;24.17;47.41
20955;BME280;10636;19.390;-99.256;2022-08-19T03:29:14;78107.56;;;24.18;47.81
20955;BME280;10636;19.390;-99.256;2022-08-19T03:31:43;78110.88;;;24.17;47.03
20955;BME280;10636;19.390;-99.256;2022-08-19T03:34:13;78089.00;;;24.07;47.04
20955;BME280;10636;19.390;-99.256;2022-08-19T03:36:43;78114.94;;;24.18;47.09
20955;BME280;10636;19.390;-99.256;2022-08-19T03:39:12;78117.00;;;24.19;46.77
20955;BME280;10636;19.390;-99.256;2022-08-19T03:41:43;78119.53;;;24.15;47.15
20955;BME280;10636;19.390;-99.256;2022-08-19T03:44:12;78122.78;;;24.14;47.36
20955;BME280;10636;19.390;-99.256;2022-08-19T03:46:41;78120.72;;;24.12;47.54
20955;BME280;10636;19.390;-99.256;2022-08-19T03:49:09;78132.75;;;24.11;47.44
20955;BME280;10636;19.390;-99.256;2022-08-19T03:51:40;78135.41;;;24.11;46.94
20955;BME280;10636;19.390;-99.256;2022-08-19T03:54:10;78127.38;;;24.11;47.20
20955;BME280;10636;19.390;-99.256;2022-08-19T03:56:40;78132.06;;;24.11;46.75
20955;BME280;10636;19.390;-99.256;2022-08-19T03:59:12;78141.41;;;24.10;47.17
20955;BME280;10636;19.390;-99.256;2022-08-19T04:01:41;78132.75;;;24.11;46.83
20955;BME280;10636;19.390;-99.256;2022-08-19T04:04:09;78129.97;;;24.09;46.87
20955;BME280;10636;19.390;-99.256;2022-08-19T04:06:39;78133.94;;;24.08;47.29
20955;BME280;10636;19.390;-99.256;2022-08-19T04:09:10;78128.59;;;24.08;46.76
20955;BME280;10636;19.390;-99.256;2022-08-19T04:11:41;78129.81;;;24.05;47.53
20955;BME280;10636;19.390;-99.256;2022-08-19T04:14:11;78125.81;;;24.06;47.41
20955;BME280;10636;19.390;-99.256;2022-08-19T04:16:40;78128.50;;;24.06;47.50
20955;BME280;10636;19.390;-99.256;2022-08-19T04:19:10;78132.56;;;24.07;47.09
20955;BME280;10636;19.390;-99.256;2022-08-19T04:21:43;78131.19;;;24.06;46.84
20955;BME280;10636;19.390;-99.256;2022-08-19T04:24:13;78133.25;;;24.08;47.12
20955;BME280;10636;19.390;-99.256;2022-08-19T04:26:42;78131.19;;;24.06;47.55
20955;BME280;10636;19.390;-99.256;2022-08-19T04:29:13;78143.88;;;24.06;47.12
20955;BME280;10636;19.390;-99.256;2022-08-19T04:31:44;78141.91;;;24.06;47.38
20955;BME280;10636;19.390;-99.256;2022-08-19T04:34:15;78137.22;;;24.07;46.94
20955;BME280;10636;19.390;-99.256;2022-08-19T04:36:53;78144.56;;;24.06;46.88
20955;BME280;10636;19.390;-99.256;2022-08-19T04:39:25;78148.63;;;24.07;46.91
20955;BME280;10636;19.390;-99.256;2022-08-19T04:42:15;78148.47;;;24.03;47.27
20955;BME280;10636;19.390;-99.256;2022-08-19T04:45:00;78144.56;;;24.06;47.41
20955;BME280;10636;19.390;-99.256;2022-08-19T04:47:29;78147.16;;;24.04;47.62
20955;BME280;10636;19.390;-99.256;2022-08-19T04:49:59;78141.91;;;24.06;47.54
20955;BME280;10636;19.390;-99.256;2022-08-19T04:52:29;78138.78;;;23.96;47.16
20955;BME280;10636;19.390;-99.256;2022-08-19T04:54:58;78149.84;;;24.04;47.03
20955;BME280;10636;19.390;-99.256;2022-08-19T04:57:26;78141.03;;;24.02;47.59
20955;BME280;10636;19.390;-99.256;2022-08-19T04:59:56;78134.97;;;24.01;47.11
20955;BME280;10636;19.390;-99.256;2022-08-19T05:02:24;78138.34;;;24.02;47.38
20955;BME280;10636;19.390;-99.256;2022-08-19T05:04:57;78130.81;;;23.98;46.88
20955;BME280;10636;19.390;-99.256;2022-08-19T05:07:29;78141.03;;;24.02;47.55
20955;BME280;10636;19.390;-99.256;2022-08-19T05:09:57;78135.66;;;24.02;47.60
20955;BME280;10636;19.390;-99.256;2022-08-19T05:12:26;78138.97;;;24.00;47.35
20955;BME280;10636;19.390;-99.256;2022-08-19T05:14:55;78132.91;;;23.99;47.48
20955;BME280;10636;19.390;-99.256;2022-08-19T05:17:23;78136.19;;;23.98;47.20
20955;BME280;10636;19.390;-99.256;2022-08-19T05:19:52;78134.13;;;23.96;47.17
20955;BME280;10636;19.390;-99.256;2022-08-19T05:22:39;78126.69;;;23.95;47.13
20955;BME280;10636;19.390;-99.256;2022-08-19T05:25:10;78133.41;;;23.96;47.61
20955;BME280;10636;19.390;-99.256;2022-08-19T05:27:40;78129.44;;;23.97;47.58
20955;BME280;10636;19.390;-99.256;2022-08-19T05:30:10;78128.75;;;23.96;46.89
20955;BME280;10636;19.390;-99.256;2022-08-19T05:32:40;78118.66;;;23.95;47.08
20955;BME280;10636;19.390;-99.256;2022-08-19T05:35:09;78120.03;;;23.96;47.22
20955;BME280;10636;19.390;-99.256;2022-08-19T05:37:39;78121.31;;;23.95;47.40
20955;BME280;10636;19.390;-99.256;2022-08-19T05:40:09;78119.22;;;23.93;47.32
20955;BME280;10636;19.390;-99.256;2022-08-19T05:42:38;78122.63;;;23.94;47.34
20955;BME280;10636;19.390;-99.256;2022-08-19T05:45:07;78109.06;;;23.90;46.79
20955;BME280;10636;19.390;-99.256;2022-08-19T05:47:36;78113.19;;;23.93;47.27
20955;BME280;10636;19.390;-99.256;2022-08-19T05:50:05;78112.50;;;23.92;47.61
20955;BME280;10636;19.390;-99.256;2022-08-19T05:52:33;78117.16;;;23.92;47.63
20955;BME280;10636;19.390;-99.256;2022-08-19T05:55:06;78103.78;;;23.92;46.84
20955;BME280;10636;19.390;-99.256;2022-08-19T05:57:35;78116.47;;;23.91;47.26
20955;BME280;10636;19.390;-99.256;2022-08-19T06:00:06;78106.97;;;23.88;47.25
20955;BME280;10636;19.390;-99.256;2022-08-19T06:02:37;78117.09;;;23.90;46.65
20955;BME280;10636;19.390;-99.256;2022-08-19T06:05:06;78119.78;;;23.90;46.96
20955;BME280;10636;19.390;-99.256;2022-08-19T06:07:35;78117.69;;;23.88;46.69
20955;BME280;10636;19.390;-99.256;2022-08-19T06:10:06;78123.03;;;23.88;46.97
20955;BME280;10636;19.390;-99.256;2022-08-19T06:12:35;78115.72;;;23.89;46.95
20955;BME280;10636;19.390;-99.256;2022-08-19T06:15:06;78102.13;;;23.85;47.32
20955;BME280;10636;19.390;-99.256;2022-08-19T06:17:35;78102.22;;;23.87;47.13
20955;BME280;10636;19.390;-99.256;2022-08-19T06:20:05;78100.75;;;23.84;46.76
20955;BME280;10636;19.390;-99.256;2022-08-19T06:22:38;78108.78;;;23.84;47.30
20955;BME280;10636;19.390;-99.256;2022-08-19T06:25:09;78094.34;;;23.75;46.90
20955;BME280;10636;19.390;-99.256;2022-08-19T06:27:38;78103.44;;;23.84;47.50
20955;BME280;10636;19.390;-99.256;2022-08-19T06:30:08;78103.44;;;23.84;47.61
20955;BME280;10636;19.390;-99.256;2022-08-19T06:32:37;78107.50;;;23.85;47.58
20955;BME280;10636;19.390;-99.256;2022-08-19T06:35:07;78111.47;;;23.84;47.05
20955;BME280;10636;19.390;-99.256;2022-08-19T06:37:37;78112.75;;;23.83;47.47
20955;BME280;10636;19.390;-99.256;2022-08-19T06:40:08;78106.69;;;23.82;47.13
20955;BME280;10636;19.390;-99.256;2022-08-19T06:42:37;78104.03;;;23.82;47.32
20955;BME280;10636;19.390;-99.256;2022-08-19T06:45:07;78115.44;;;23.83;46.85
20955;BME280;10636;19.390;-99.256;2022-08-19T06:47:35;78120.78;;;23.83;47.32
20955;BME280;10636;19.390;-99.256;2022-08-19T06:50:04;78117.34;;;23.80;47.27
20955;BME280;10636;19.390;-99.256;2022-08-19T06:52:35;78112.59;;;23.79;46.87
20955;BME280;10636;19.390;-99.256;2022-08-19T06:55:04;78116.53;;;23.78;47.54
20955;BME280;10636;19.390;-99.256;2022-08-19T06:57:34;78113.88;;;23.78;47.41
20955;BME280;10636;19.390;-99.256;2022-08-19T07:00:04;78099.03;;;23.74;46.84
20955;BME280;10636;19.390;-99.256;2022-08-19T07:02:36;78100.41;;;23.76;46.90
20955;BME280;10636;19.390;-99.256;2022-08-19T07:05:05;78100.41;;;23.76;47.00
20955;BME280;10636;19.390;-99.256;2022-08-19T07:07:34;78105.75;;;23.76;47.18
20955;BME280;10636;19.390;-99.256;2022-08-19T07:10:04;78111.09;;;23.76;47.01
20955;BME280;10636;19.390;-99.256;2022-08-19T07:12:34;78097.72;;;23.76;47.78
20955;BME280;10636;19.390;-99.256;2022-08-19T07:15:03;78088.38;;;23.77;47.42
20955;BME280;10636;19.390;-99.256;2022-08-19T07:17:32;78083.66;;;23.75;47.53
20955;BME280;10636;19.390;-99.256;2022-08-19T07:20:01;78079.59;;;23.74;46.87
20955;BME280;10636;19.390;-99.256;2022-08-19T07:22:30;78084.25;;;23.73;47.58
20955;BME280;10636;19.390;-99.256;2022-08-19T07:24:58;78084.25;;;23.73;46.97
20955;BME280;10636;19.390;-99.256;2022-08-19T07:27:29;78078.09;;;23.71;47.25
20955;BME280;10636;19.390;-99.256;2022-08-19T07:29:59;78075.44;;;23.71;47.42
20955;BME280;10636;19.390;-99.256;2022-08-19T07:32:28;78074.81;;;23.72;47.62
20955;BME280;10636;19.390;-99.256;2022-08-19T07:34:57;78078.09;;;23.71;47.05
20955;BME280;10636;19.390;-99.256;2022-08-19T07:37:26;78074.75;;;23.70;47.55
20955;BME280;10636;19.390;-99.256;2022-08-19T07:39:55;78072.75;;;23.71;47.75
20955;BME280;10636;19.390;-99.256;2022-08-19T07:42:23;78077.41;;;23.70;47.73
20955;BME280;10636;19.390;-99.256;2022-08-19T07:44:52;78070.00;;;23.69;47.49
20955;BME280;10636;19.390;-99.256;2022-08-19T07:47:22;78059.97;;;23.69;47.83
20955;BME280;10636;19.390;-99.256;2022-08-19T07:49:50;78061.28;;;23.68;47.75
20955;BME280;10636;19.390;-99.256;2022-08-19T07:52:18;78062.66;;;23.69;47.86
20955;BME280;10636;19.390;-99.256;2022-08-19T07:54:47;78059.28;;;23.69;47.06
20955;BME280;10636;19.390;-99.256;2022-08-19T07:57:16;78058.59;;;23.68;47.18
20955;BME280;10636;19.390;-99.256;2022-08-19T07:59:45;78057.19;;;23.67;46.93
20955;BME280;10636;19.390;-99.256;2022-08-19T08:02:13;78055.81;;;23.66;46.97
20955;BME280;10636;19.390;-99.256;2022-08-19T08:04:43;78054.44;;;23.65;47.49
20955;BME280;10636;19.390;-99.256;2022-08-19T08:07:28;78058.41;;;23.64;47.59
20955;BME280;10636;19.390;-99.256;2022-08-19T08:10:10;78055.63;;;23.62;47.37
20955;BME280;10636;19.390;-99.256;2022-08-19T08:12:40;78043.44;;;23.59;47.64
20955;BME280;10636;19.390;-99.256;2022-08-19T08:15:11;78047.41;;;23.58;47.64
20955;BME280;10636;19.390;-99.256;2022-08-19T08:17:42;78050.09;;;23.58;47.08
20955;BME280;10636;19.390;-99.256;2022-08-19T08:20:14;78050.09;;;23.58;46.97
20955;BME280;10636;19.390;-99.256;2022-08-19T08:22:46;78048.72;;;23.57;47.19
20955;BME280;10636;19.390;-99.256;2022-08-19T08:25:31;78050.00;;;23.56;47.67
20955;BME280;10636;19.390;-99.256;2022-08-19T08:27:59;78041.19;;;23.54;46.96
20955;BME280;10636;19.390;-99.256;2022-08-19T08:30:29;78047.31;;;23.56;47.68
20955;BME280;10636;19.390;-99.256;2022-08-19T08:32:59;78047.31;;;23.56;47.26
20955;BME280;10636;19.390;-99.256;2022-08-19T08:35:29;78041.97;;;23.56;47.25
20955;BME280;10636;19.390;-99.256;2022-08-19T08:37:58;78039.38;;;23.58;47.18
20955;BME280;10636;19.390;-99.256;2022-08-19T08:40:30;78038.69;;;23.58;46.87
20955;BME280;10636;19.390;-99.256;2022-08-19T08:43:07;78035.91;;;23.56;47.17
20955;BME280;10636;19.390;-99.256;2022-08-19T08:45:44;78035.22;;;23.55;47.28
20955;BME280;10636;19.390;-99.256;2022-08-19T08:48:20;78045.25;;;23.55;46.88
20955;BME280;10636;19.390;-99.256;2022-08-19T08:50:52;78043.19;;;23.53;46.88
20955;BME280;10636;19.390;-99.256;2022-08-19T08:53:23;78034.38;;;23.51;46.96
20955;BME280;10636;19.390;-99.256;2022-08-19T08:55:52;78040.41;;;23.51;47.33
20955;BME280;10636;19.390;-99.256;2022-08-19T08:58:26;78036.47;;;23.52;46.86
20955;BME280;10636;19.390;-99.256;2022-08-19T09:00:57;78029.63;;;23.49;47.21
20955;BME280;10636;19.390;-99.256;2022-08-19T09:03:27;78031.09;;;23.52;47.21
20955;BME280;10636;19.390;-99.256;2022-08-19T09:06:01;77996.44;;;23.25;47.60
20955;BME280;10636;19.390;-99.256;2022-08-19T09:08:39;78022.88;;;23.48;46.75
20955;BME280;10636;19.390;-99.256;2022-08-19T09:11:13;78022.78;;;23.46;47.33
20955;BME280;10636;19.390;-99.256;2022-08-19T09:13:49;78018.72;;;23.45;47.50
20955;BME280;10636;19.390;-99.256;2022-08-19T09:16:25;78014.00;;;23.43;47.01
20955;BME280;10636;19.390;-99.256;2022-08-19T09:19:01;78009.31;;;23.44;47.23
20955;BME280;10636;19.390;-99.256;2022-08-19T09:21:32;78011.94;;;23.42;47.73
20955;BME280;10636;19.390;-99.256;2022-08-19T09:24:01;77996.81;;;23.33;46.75
20955;BME280;10636;19.390;-99.256;2022-08-19T09:26:31;78013.31;;;23.43;47.69
20955;BME280;10636;19.390;-99.256;2022-08-19T09:29:00;78007.84;;;23.41;47.09
20955;BME280;10636;19.390;-99.256;2022-08-19T09:31:31;78014.50;;;23.40;47.46
20955;BME280;10636;19.390;-99.256;2022-08-19T09:34:00;78002.50;;;23.41;47.70
20955;BME280;10636;19.390;-99.256;2022-08-19T09:36:32;78010.63;;;23.43;46.75
20955;BME280;10636;19.390;-99.256;2022-08-19T09:39:03;78009.25;;;23.42;46.77
20955;BME280;10636;19.390;-99.256;2022-08-19T09:41:32;78005.88;;;23.41;47.49
20955;BME280;10636;19.390;-99.256;2022-08-19T09:44:00;78008.47;;;23.39;46.87
20955;BME280;10636;19.390;-99.256;2022-08-19T09:46:29;78006.38;;;23.38;47.75
20955;BME280;10636;19.390;-99.256;2022-08-19T09:48:59;77998.97;;;23.36;47.61
20955;BME280;10636;19.390;-99.256;2022-08-19T09:51:28;77988.59;;;23.29;47.10
20955;BME280;10636;19.390;-99.256;2022-08-19T09:54:02;77992.22;;;23.35;47.29
20955;BME280;10636;19.390;-99.256;2022-08-19T09:56:31;77990.34;;;23.38;47.53
20955;BME280;10636;19.390;-99.256;2022-08-19T09:59:00;78001.03;;;23.38;47.54
20955;BME280;10636;19.390;-99.256;2022-08-19T10:01:30;77999.75;;;23.39;46.85
20955;BME280;10636;19.390;-99.256;2022-08-19T10:03:59;77988.97;;;23.37;47.37
20955;BME280;10636;19.390;-99.256;2022-08-19T10:06:29;77997.00;;;23.37;47.42
20955;BME280;10636;19.390;-99.256;2022-08-19T10:09:00;77997.56;;;23.35;46.78
20955;BME280;10636;19.390;-99.256;2022-08-19T10:11:30;77991.44;;;23.33;47.70
20955;BME280;10636;19.390;-99.256;2022-08-19T10:13:59;77989.28;;;23.29;46.91
20955;BME280;10636;19.390;-99.256;2022-08-19T10:16:27;77992.75;;;23.32;47.69
20955;BME280;10636;19.390;-99.256;2022-08-19T10:18:56;77992.84;;;23.34;47.12
20955;BME280;10636;19.390;-99.256;2022-08-19T10:21:26;77998.19;;;23.34;47.37
20955;BME280;10636;19.390;-99.256;2022-08-19T10:23:56;77996.19;;;23.34;47.41
20955;BME280;10636;19.390;-99.256;2022-08-19T10:26:30;77991.53;;;23.35;46.71
20955;BME280;10636;19.390;-99.256;2022-08-19T10:28:59;78002.22;;;23.35;46.63
20955;BME280;10636;19.390;-99.256;2022-08-19T10:31:29;77995.50;;;23.34;46.68
20955;BME280;10636;19.390;-99.256;2022-08-19T10:33:58;77984.63;;;23.30;46.87
20955;BME280;10636;19.390;-99.256;2022-08-19T10:36:28;77989.38;;;23.31;47.37
20955;BME280;10636;19.390;-99.256;2022-08-19T10:38:58;77987.31;;;23.30;47.02
20955;BME280;10636;19.390;-99.256;2022-08-19T10:41:31;77988.41;;;23.25;47.22
20955;BME280;10636;19.390;-99.256;2022-08-19T10:44:05;77986.53;;;23.27;47.26
20955;BME280;10636;19.390;-99.256;2022-08-19T10:46:36;77987.22;;;23.28;46.78
20955;BME280;10636;19.390;-99.256;2022-08-19T10:49:08;77975.13;;;23.27;47.33
20955;BME280;10636;19.390;-99.256;2022-08-19T10:51:38;77979.13;;;23.26;46.71
20955;BME280;10636;19.390;-99.256;2022-08-19T10:54:24;77985.84;;;23.27;46.70
20955;BME280;10636;19.390;-99.256;2022-08-19T10:57:14;77989.81;;;23.26;47.31
20955;BME280;10636;19.390;-99.256;2022-08-19T10:59:42;77996.53;;;23.27;46.65
20955;BME280;10636;19.390;-99.256;2022-08-19T11:02:11;77984.47;;;23.26;46.79
20955;BME280;10636;19.390;-99.256;2022-08-19T11:04:40;77998.63;;;23.28;46.77
20955;BME280;10636;19.390;-99.256;2022-08-19T11:07:09;77991.09;;;23.25;47.11
20955;BME280;10636;19.390;-99.256;2022-08-19T11:09:39;77995.16;;;23.26;47.30
20955;BME280;10636;19.390;-99.256;2022-08-19T11:12:08;78001.09;;;23.24;46.55
20955;BME280;10636;19.390;-99.256;2022-08-19T11:14:40;78000.41;;;23.23;47.25
20955;BME280;10636;19.390;-99.256;2022-08-19T11:17:09;77999.13;;;23.25;47.04
20955;BME280;10636;19.390;-99.256;2022-08-19T11:19:39;78003.09;;;23.23;46.93
20955;BME280;10636;19.390;-99.256;2022-08-19T11:22:08;77992.38;;;23.23;47.10
20955;BME280;10636;19.390;-99.256;2022-08-19T11:24:37;77991.00;;;23.22;46.58
20955;BME280;10636;19.390;-99.256;2022-08-19T11:27:08;78003.00;;;23.21;46.57
20955;BME280;10636;19.390;-99.256;2022-08-19T11:29:40;78001.03;;;23.22;46.45
20955;BME280;10636;19.390;-99.256;2022-08-19T11:32:09;78008.38;;;23.21;46.90
20955;BME280;10636;19.390;-99.256;2022-08-19T11:34:39;78006.28;;;23.20;46.90
20955;BME280;10636;19.390;-99.256;2022-08-19T11:37:07;78005.50;;;23.17;47.14
20955;BME280;10636;19.390;-99.256;2022-08-19T11:39:36;78004.31;;;23.20;47.08
20955;BME280;10636;19.390;-99.256;2022-08-19T11:42:06;78005.69;;;23.21;47.29
20955;BME280;10636;19.390;-99.256;2022-08-19T11:44:50;78012.41;;;23.22;46.90
20955;BME280;10636;19.390;-99.256;2022-08-19T11:47:18;78001.72;;;23.22;46.79
20955;BME280;10636;19.390;-99.256;2022-08-19T11:49:47;77985.91;;;23.13;46.90
20955;BME280;10636;19.390;-99.256;2022-08-19T11:52:16;78009.81;;;23.25;46.66
20955;BME280;10636;19.390;-99.256;2022-08-19T11:54:44;78001.09;;;23.24;46.63
20955;BME280;10636;19.390;-99.256;2022-08-19T11:57:13;78009.25;;;23.26;46.84
20955;BME280;10636;19.390;-99.256;2022-08-19T11:59:47;78005.88;;;23.26;46.82
20955;BME280;10636;19.390;-99.256;2022-08-19T12:02:17;78003.09;;;23.23;46.45
20955;BME280;10636;19.390;-99.256;2022-08-19T12:04:45;78004.47;;;23.25;47.21
20955;BME280;10636;19.390;-99.256;2022-08-19T12:07:14;78004.47;;;23.25;46.57
20955;BME280;10636;19.390;-99.256;2022-08-19T12:09:42;78003.19;;;23.26;46.55
20955;BME280;10636;19.390;-99.256;2022-08-19T12:12:11;78006.47;;;23.24;46.64
20955;BME280;10636;19.390;-99.256;2022-08-19T12:14:39;78006.47;;;23.24;46.54
20955;BME280;10636;19.390;-99.256;2022-08-19T12:17:07;78004.47;;;23.25;46.93
20955;BME280;10636;19.390;-99.256;2022-08-19T12:19:39;78004.38;;;23.22;46.80
20955;BME280;10636;19.390;-99.256;2022-08-19T12:22:07;78007.75;;;23.23;47.23
20955;BME280;10636;19.390;-99.256;2022-08-19T12:24:36;78015.00;;;23.20;46.97
20955;BME280;10636;19.390;-99.256;2022-08-19T12:27:04;78013.78;;;23.23;46.84
20955;BME280;10636;19.390;-99.256;2022-08-19T12:29:33;78009.75;;;23.22;46.70
20955;BME280;10636;19.390;-99.256;2022-08-19T12:32:01;78023.13;;;23.22;47.09
20955;BME280;10636;19.390;-99.256;2022-08-19T12:34:30;78028.47;;;23.22;46.69
20955;BME280;10636;19.390;-99.256;2022-08-19T12:37:02;78043.84;;;23.22;47.29
20955;BME280;10636;19.390;-99.256;2022-08-19T12:39:34;78031.75;;;23.21;46.68
20955;BME280;10636;19.390;-99.256;2022-08-19T12:42:03;78042.28;;;23.17;47.12
20955;BME280;10636;19.390;-99.256;2022-08-19T12:44:32;78036.41;;;23.20;46.64
20955;BME280;10636;19.390;-99.256;2022-08-19T12:47:00;78039.00;;;23.18;46.52
20955;BME280;10636;19.390;-99.256;2022-08-19T12:49:29;78032.34;;;23.19;46.54
20955;BME280;10636;19.390;-99.256;2022-08-19T12:51:57;78030.97;;;23.18;46.61
20955;BME280;10636;19.390;-99.256;2022-08-19T12:54:29;78033.63;;;23.18;47.29
20955;BME280;10636;19.390;-99.256;2022-08-19T12:56:57;78032.25;;;23.17;46.52